CDT,Max TemperatureF,Mean TemperatureF,Min TemperatureF,Max Dew PointF,MeanDew PointF,Min DewpointF,Max Humidity, Mean Humidity, Min Humidity, Max Sea Level PressureIn, Mean Sea Level PressureIn, Min Sea Level PressureIn, Max VisibilityMiles, Mean VisibilityMiles, Min VisibilityMiles, Max Wind SpeedMPH, Mean Wind SpeedMPH, Max Gust SpeedMPH,PrecipitationIn, CloudCover, Events, WindDirDegrees
2012-3-1,73,52,31,33,27,23,72,46,19,29.92,29.72,29.54,10,10,10,29,11,36,0.00,0,,168
2012-3-2,55,41,27,46,35,24,83,67,50,29.94,29.65,29.36,10,10,8,31,10,38,T,4,Rain,306
2012-3-3,48,38,27,26,20,15,85,57,28,30.06,30.00,29.94,10,10,2,24,8,45,0.00,2,,291
2012-3-4,62,44,26,31,24,18,75,50,25,30.15,29.97,29.88,10,10,10,28,13,40,0.00,2,,264
2012-3-5,60,44,27,25,21,15,81,50,19,30.38,30.25,30.07,10,10,5,23,11,28,0.00,0,Snow,144
2012-3-6,70,58,45,42,32,25,53,37,20,30.15,30.01,29.91,10,10,10,40,22,47,0.00,0,,174
2012-3-7,68,63,57,53,49,43,72,63,53,29.96,29.94,29.90,10,10,10,35,19,43,T,5,,179
2012-3-8,62,47,31,54,35,25,92,81,70,30.52,30.23,29.94,10,10,6,33,12,44,0.13,6,Rain-Thunderstorm,357
2012-3-9,59,43,26,26,23,20,85,54,23,30.55,30.50,30.43,10,10,10,18,6,23,0.00,0,,32
2012-3-10,62,47,32,29,25,21,75,48,20,30.44,30.32,30.19,10,10,10,20,11,35,0.00,0,,149
2012-3-11,55,51,46,54,46,29,100,70,39,30.17,29.99,29.87,10,9,2,25,17,33,0.37,7,Rain,155
2012-3-12,75,61,46,53,48,42,100,67,33,30.01,29.89,29.84,10,10,6,24,14,37,0.00,1,,190
2012-3-13,82,65,47,54,47,39,86,55,23,30.09,30.02,29.97,10,10,10,22,10,26,0.00,0,,177
2012-3-14,79,69,59,61,56,52,90,69,47,30.05,30.01,29.97,10,10,10,24,14,33,0.00,2,,193
2012-3-15,77,69,60,61,58,54,84,70,56,30.11,30.06,29.98,10,10,10,21,12,29,0.00,4,,187
2012-3-16,80,70,59,62,58,55,90,69,48,30.09,30.02,29.95,10,10,10,20,11,24,0.00,2,,177
2012-3-17,79,69,59,60,55,52,84,63,42,30.02,29.96,29.89,10,10,10,22,11,29,0.00,2,,177
2012-3-18,78,70,62,59,55,52,84,65,46,29.99,29.94,29.88,10,10,10,22,13,28,0.00,2,,167
2012-3-19,73,65,56,61,57,53,93,77,61,29.87,29.80,29.69,10,10,2,36,16,45,0.38,5,Rain,150
2012-3-20,70,63,55,58,55,53,100,82,63,29.89,29.82,29.73,10,8,2,29,10,38,1.26,8,Rain-Thunderstorm,108
2012-3-21,63,56,49,58,54,48,96,90,84,29.90,29.82,29.68,10,9,2,36,14,49,0.45,8,Rain,136
2012-3-22,64,55,45,49,47,45,100,76,52,29.98,29.92,29.85,10,9,2,39,15,47,0.06,4,Rain,141
2012-3-23,55,49,42,47,45,41,100,86,71,29.97,29.90,29.84,10,9,2,17,8,23,0.08,7,Rain,253
2012-3-24,71,59,47,51,46,44,93,67,41,30.01,29.97,29.94,10,10,10,21,9,24,0.00,0,,289
2012-3-25,77,60,43,55,49,42,93,68,43,30.11,30.05,30.01,10,10,10,9,2,13,0.00,0,,320
2012-3-26,79,66,52,57,53,48,89,66,42,30.13,30.04,29.98,10,10,10,20,11,25,0.00,0,,154
2012-3-27,80,70,59,58,54,51,80,60,39,30.04,29.99,29.93,10,10,10,22,13,28,0.00,0,,185
2012-3-28,78,66,53,60,56,51,86,67,48,30.05,29.98,29.90,10,10,9,13,6,24,0.00,3,,186
2012-3-29,77,65,53,58,53,50,89,66,43,29.95,29.87,29.78,10,9,6,18,9,23,0.00,0,,172
2012-3-30,77,67,56,60,56,51,93,74,54,29.83,29.80,29.74,10,9,6,14,6,18,0.00,2,,221
2012-3-31,80,68,55,63,57,53,93,69,45,29.87,29.81,29.77,10,9,6,10,5,,0.00,1,,196